Time;durP1;ratioP1;P1;durP2;ratioP2;P2;SDS_P1;SDS_P2;PMS_P1;PMS_P2;Temp;Humidity;BMP_temperature;BMP_pressure;BME280_temperature;BME280_humidity;BME280_pressure;Samples;Min_cycle;Max_cycle;Signal;HPM_P1;HPM_P2
2021/12/13 00:00:09;;;;;;;29.50;20.20;;;5.90;99.90;;;5.98;83.64;101814.53;4912569;29;20190;-74
2021/12/13 00:02:50;;;;;;;27.75;18.55;;;5.90;99.90;;;5.90;83.60;101814.44;4904382;29;20190;-74
2021/12/13 00:05:30;;;;;;;29.77;21.08;;;5.90;99.90;;;5.96;83.64;101809.31;4904438;29;20687;-74
2021/12/13 00:08:06;;;;;;;30.63;21.08;;;5.90;99.90;;;5.93;83.64;101808.75;4916921;29;20208;-73
2021/12/13 00:10:42;;;;;;;34.58;20.90;;;5.90;99.90;;;5.97;83.87;101816.38;4918605;29;20704;-72
2021/12/13 00:13:17;;;;;;;29.35;20.65;;;5.90;99.90;;;5.97;83.45;101811.00;4917890;29;20705;-72
2021/12/13 00:15:54;;;;;;;33.72;21.15;;;5.90;99.90;;;5.99;83.74;101816.25;4917729;29;20639;-71
2021/12/13 00:18:28;;;;;;;31.40;20.85;;;5.90;99.90;;;6.03;83.50;101814.94;4916859;29;20227;-73
2021/12/13 00:21:07;;;;;;;30.08;19.63;;;5.90;99.90;;;6.02;83.51;101824.84;4917965;29;20177;-73
2021/12/13 00:23:47;;;;;;;35.42;20.17;;;5.90;99.90;;;6.05;83.18;101823.72;4918214;29;20653;-72
2021/12/13 00:26:29;;;;;;;27.33;20.23;;;6.00;99.90;;;6.11;83.46;101825.75;4918708;29;20347;-73
2021/12/13 00:29:09;;;;;;;35.13;21.27;;;6.00;99.90;;;6.16;83.09;101819.94;4917715;29;20177;-73
2021/12/13 00:31:51;;;;;;;31.65;21.23;;;6.10;99.90;;;6.15;83.06;101824.47;4932646;29;20197;-72
2021/12/13 00:34:33;;;;;;;32.70;21.00;;;6.10;99.90;;;6.10;83.07;101829.44;4917638;29;20193;-71
2021/12/13 00:37:10;;;;;;;30.08;20.25;;;6.10;99.90;;;6.17;83.04;101833.25;4918381;29;20217;-71
2021/12/13 00:39:45;;;;;;;31.13;19.35;;;6.10;99.90;;;6.14;83.17;101832.69;4918010;29;20265;-75
2021/12/13 00:42:16;;;;;;;35.67;22.42;;;6.10;99.90;;;6.18;83.25;101832.25;4917032;29;20208;-73
2021/12/13 00:44:49;;;;;;;33.60;21.60;;;6.10;99.90;;;6.11;83.21;101833.81;4932004;29;20595;-72
2021/12/13 00:47:27;;;;;;;32.05;21.00;;;6.10;99.90;;;6.19;83.29;101835.78;4917698;29;20213;-72
2021/12/13 00:50:06;;;;;;;32.28;19.10;;;6.10;99.90;;;6.09;83.13;101835.84;4917848;29;20203;-72
2021/12/13 00:52:39;;;;;;;34.97;22.13;;;6.10;99.90;;;6.05;83.26;101840.66;4917390;29;20197;-72
2021/12/13 00:55:14;;;;;;;29.15;20.02;;;6.00;99.90;;;6.19;83.45;101841.16;4917705;29;20213;-72
2021/12/13 00:57:46;;;;;;;30.15;20.77;;;6.10;99.90;;;6.16;83.20;101847.66;4917118;29;20220;-72
2021/12/13 01:00:24;;;;;;;32.38;20.48;;;6.10;99.90;;;6.22;83.14;101846.22;4932082;29;20268;-72
2021/12/13 01:02:58;;;;;;;29.85;18.77;;;6.10;99.90;;;6.30;82.90;101843.59;4918175;29;20193;-73
2021/12/13 01:06:34;;;;;;;33.22;20.75;;;6.20;99.90;;;6.18;82.85;101860.97;4917638;29;20189;-74
2021/12/13 01:09:55;;;;;;;33.88;20.20;;;6.10;99.90;;;6.32;82.44;101863.13;4911551;29;20303;-71
2021/12/13 01:12:24;;;;;;;29.70;20.33;;;6.20;99.90;;;6.24;82.93;101855.84;4916468;29;20210;-72
2021/12/13 01:15:01;;;;;;;32.65;19.73;;;6.20;99.90;;;6.16;83.28;101879.06;4932052;29;20192;-71
2021/12/13 01:17:51;;;;;;;26.80;19.08;;;6.10;99.90;;;6.40;82.89;101877.50;4919220;29;20209;-73
2021/12/13 01:20:33;;;;;;;30.20;18.73;;;6.30;99.90;;;6.38;82.60;101876.84;4919398;29;20185;-72
2021/12/13 01:23:13;;;;;;;32.78;21.90;;;6.30;99.90;;;6.22;83.01;101878.47;4918723;29;20197;-71
2021/12/13 01:25:49;;;;;;;32.03;21.73;;;6.20;99.90;;;6.32;83.14;101874.75;4916321;29;20181;-72
2021/12/13 01:28:27;;;;;;;27.88;20.80;;;6.20;99.90;;;6.44;82.04;101886.97;4916705;29;20217;-71
2021/12/13 01:31:01;;;;;;;33.70;22.50;;;6.30;99.90;;;6.30;82.87;101882.09;4917452;29;20189;-73
2021/12/13 01:33:33;;;;;;;33.88;21.33;;;6.30;99.90;;;6.26;83.21;101880.72;4920707;29;20212;-73
2021/12/13 01:36:09;;;;;;;28.63;20.85;;;6.20;99.90;;;6.41;82.68;101884.59;4922065;29;20186;-73
2021/12/13 01:38:45;;;;;;;32.55;20.60;;;6.30;99.90;;;6.35;82.84;101879.81;4923725;29;20659;-72
2021/12/13 01:41:19;;;;;;;30.73;20.65;;;6.30;99.90;;;6.46;82.67;101886.81;4936279;29;20200;-71
2021/12/13 01:43:55;;;;;;;29.80;19.95;;;6.40;99.90;;;6.49;82.43;101886.50;4920010;29;20271;-73
2021/12/13 01:46:26;;;;;;;29.00;21.15;;;6.40;99.90;;;6.52;82.19;101892.44;4920698;29;20189;-72
2021/12/13 01:48:55;;;;;;;31.15;20.45;;;6.40;99.90;;;6.27;82.91;101892.31;4920999;29;20233;-71
2021/12/13 01:51:33;;;;;;;36.40;23.02;;;6.30;99.90;;;6.16;83.65;101893.34;4920910;29;20185;-71
2021/12/13 01:54:06;;;;;;;33.78;21.65;;;6.20;99.90;;;6.26;83.34;101891.47;4921837;29;20225;-71
2021/12/13 01:56:55;;;;;;;32.92;20.48;;;6.20;99.90;;;6.28;83.42;101884.09;4922688;29;20205;-71
2021/12/13 01:59:48;;;;;;;33.83;20.52;;;6.20;99.90;;;6.42;82.59;101888.13;4923554;29;20604;-73
2021/12/13 02:02:27;;;;;;;32.63;22.23;;;6.30;99.90;;;6.45;82.94;101890.50;4924171;29;20415;-72
2021/12/13 02:05:09;;;;;;;30.52;19.38;;;6.30;99.90;;;6.51;82.62;101882.69;4925039;29;20681;-72
2021/12/13 02:07:46;;;;;;;29.73;20.63;;;6.40;99.90;;;6.65;82.35;101899.28;4925557;29;20209;-70
2021/12/13 02:10:27;;;;;;;30.52;20.50;;;6.50;99.90;;;6.61;82.06;101906.81;4927917;29;20178;-73
2021/12/13 02:13:02;;;;;;;29.58;20.73;;;6.50;99.90;;;6.66;81.72;101909.06;4920816;29;20201;-72
2021/12/13 02:18:27;;;;;;;36.75;20.77;;;6.50;99.90;;;6.32;82.89;101896.25;4922068;29;20292;-72
2021/12/13 02:21:05;;;;;;;33.83;23.40;;;6.30;99.90;;;6.33;83.37;101891.72;4921936;29;20261;-74
2021/12/13 02:23:41;;;;;;;36.05;21.70;;;6.30;99.90;;;6.34;83.10;101891.53;4920692;29;20184;-73
2021/12/13 02:26:12;;;;;;;33.55;22.52;;;6.30;99.90;;;6.44;82.98;101895.03;4919227;29;20186;-72
2021/12/13 02:28:45;;;;;;;40.75;23.27;;;6.30;99.90;;;6.31;83.07;101896.38;4919379;29;20201;-71
2021/12/13 02:31:19;;;;;;;30.58;21.83;;;6.30;99.90;;;6.49;82.92;101895.41;4919613;29;20269;-73
2021/12/13 02:33:52;;;;;;;35.42;22.95;;;6.40;99.90;;;6.54;82.30;101909.25;4920874;29;20197;-71
2021/12/13 02:36:27;;;;;;;35.30;21.90;;;6.40;99.90;;;6.59;82.71;101902.56;4920824;29;20193;-71
2021/12/13 02:39:00;;;;;;;31.92;23.23;;;6.40;99.90;;;6.43;82.80;101911.34;4921159;29;20219;-73
2021/12/13 02:41:32;;;;;;;32.05;19.88;;;6.30;99.90;;;6.66;81.88;101898.28;4919336;29;20312;-72
2021/12/13 02:44:10;;;;;;;40.65;22.65;;;6.50;99.90;;;6.61;81.94;101905.97;4932171;29;20379;-71
2021/12/13 02:46:40;;;;;;;37.53;22.80;;;6.50;99.90;;;6.54;82.14;101903.03;4917934;29;20236;-71
2021/12/13 02:49:13;;;;;;;33.97;22.30;;;6.50;99.90;;;6.52;82.64;101903.22;4918815;29;20667;-73
2021/12/13 02:51:47;;;;;;;38.50;21.70;;;6.40;99.90;;;6.57;82.28;101908.13;4923160;29;20190;-73
2021/12/13 02:54:22;;;;;;;39.83;23.55;;;6.50;99.90;;;6.44;82.79;101905.78;4935378;29;20217;-73
2021/12/13 02:56:55;;;;;;;35.63;24.52;;;6.40;99.90;;;6.44;83.13;101900.41;4935981;29;20216;-72
2021/12/13 02:59:27;;;;;;;44.08;24.75;;;6.40;99.90;;;6.42;83.36;101902.41;4935242;29;20210;-72
2021/12/13 03:02:02;;;;;;;38.53;23.60;;;6.40;99.90;;;6.59;82.66;101906.13;4934737;29;20194;-72
2021/12/13 03:04:33;;;;;;;38.97;22.80;;;6.50;99.90;;;6.52;82.44;101899.66;4934987;29;20177;-72
2021/12/13 03:07:10;;;;;;;39.85;22.20;;;6.40;99.90;;;6.52;82.85;101908.59;4940697;29;20221;-74
2021/12/13 03:09:44;;;;;;;38.03;21.33;;;6.40;99.90;;;6.54;82.33;101909.25;4939466;29;20244;-72
2021/12/13 03:12:18;;;;;;;34.67;21.50;;;6.50;99.90;;;6.43;82.99;101908.66;4919574;29;20233;-71
2021/12/13 03:14:52;;;;;;;43.58;24.10;;;6.40;99.90;;;6.43;83.60;101917.56;4917927;29;20210;-72
2021/12/13 03:17:25;;;;;;;34.97;21.55;;;6.40;99.90;;;6.43;83.26;101914.88;4917067;29;20210;-70
2021/12/13 03:20:16;;;;;;;44.70;23.65;;;6.40;99.90;;;6.59;82.53;101914.19;4921798;29;20196;-73
2021/12/13 03:23:16;;;;;;;39.53;23.55;;;6.40;99.90;;;6.47;82.65;101910.88;4929768;29;20201;-73
2021/12/13 03:26:14;;;;;;;36.40;22.35;;;6.40;99.90;;;6.43;83.41;101917.56;4921757;29;20221;-73
2021/12/13 03:29:12;;;;;;;37.53;21.08;;;6.40;99.90;;;6.58;82.76;101922.44;4917022;29;20222;-71
2021/12/13 03:31:45;;;;;;;30.98;19.38;;;6.50;99.90;;;6.59;82.86;101922.25;4916932;29;20182;-71
2021/12/13 03:34:19;;;;;;;34.88;20.88;;;6.50;99.90;;;6.42;83.36;101928.44;4917758;29;20204;-72
2021/12/13 03:36:58;;;;;;;38.70;20.60;;;6.40;99.90;;;6.40;83.30;101925.06;4917566;29;20277;-72
2021/12/13 03:39:31;;;;;;;39.63;22.45;;;6.40;99.90;;;6.60;83.09;101923.09;4917480;29;20201;-72
2021/12/13 03:42:08;;;;;;;39.40;22.58;;;6.50;99.90;;;6.50;83.46;101932.06;4931794;29;20201;-72
2021/12/13 03:44:46;;;;;;;39.22;23.98;;;6.50;99.90;;;6.53;83.21;101933.63;4917789;29;20177;-71
2021/12/13 03:47:24;;;;;;;37.05;20.83;;;6.50;99.90;;;6.55;83.37;101929.78;4917195;29;20209;-72
2021/12/13 03:49:59;;;;;;;35.45;20.80;;;6.50;99.90;;;6.67;82.79;101934.97;4917451;29;20647;-71
2021/12/13 03:52:32;;;;;;;43.03;21.60;;;6.50;99.90;;;6.72;82.45;101932.66;4916545;29;20190;-71
2021/12/13 03:55:07;;;;;;;35.00;20.38;;;6.60;99.90;;;6.86;81.91;101937.53;4916873;29;20204;-71
2021/12/13 03:57:45;;;;;;;36.45;20.67;;;6.70;99.90;;;6.63;82.70;101933.56;4916746;29;20726;-73
2021/12/13 04:00:22;;;;;;;31.10;19.80;;;6.60;99.90;;;6.74;82.61;101938.72;4916760;29;20205;-71
2021/12/13 04:02:53;;;;;;;34.33;19.52;;;6.70;99.90;;;6.63;83.08;101933.56;4916563;29;20174;-72
2021/12/13 04:05:29;;;;;;;33.80;20.05;;;6.60;99.90;;;6.81;82.47;101937.13;4916194;29;20186;-72
2021/12/13 04:08:06;;;;;;;35.30;20.17;;;6.70;99.90;;;6.86;81.82;101942.91;4916925;29;20221;-72
2021/12/13 04:10:41;;;;;;;29.23;18.55;;;6.70;99.90;;;6.83;82.13;101927.88;4918023;29;20181;-72
2021/12/13 04:13:17;;;;;;;33.10;18.95;;;6.80;99.90;;;6.85;82.11;101942.06;4917781;29;20213;-72
2021/12/13 04:16:01;;;;;;;36.17;21.30;;;6.80;99.90;;;6.88;82.13;101946.25;4917524;29;20209;-72
2021/12/13 04:21:37;;;;;;;34.05;19.15;;;6.80;99.90;;;6.78;82.51;101946.34;4916080;29;20548;-71
2021/12/13 04:24:11;;;;;;;32.10;19.42;;;6.80;99.90;;;6.80;82.34;101959.66;4916415;29;20182;-72
2021/12/13 04:26:44;;;;;;;30.92;18.92;;;6.80;99.90;;;6.62;83.27;101956.09;4916222;29;20265;-71
2021/12/13 04:29:22;;;;;;;38.00;20.15;;;6.60;99.90;;;6.71;82.82;101947.09;4917316;29;20193;-72
2021/12/13 04:31:51;;;;;;;31.38;19.48;;;6.70;99.90;;;6.78;82.65;101940.94;4917121;29;20193;-72
2021/12/13 04:34:25;;;;;;;31.00;18.45;;;6.70;99.90;;;6.83;82.47;101954.78;4917198;29;20213;-73
2021/12/13 04:37:16;;;;;;;33.80;18.35;;;6.80;99.90;;;6.90;82.03;101945.13;4931613;29;20232;-71
2021/12/13 04:39:49;;;;;;;36.28;19.30;;;6.80;99.90;;;6.82;82.11;101952.28;4916079;29;20193;-71
2021/12/13 04:42:22;;;;;;;30.63;18.67;;;6.80;99.90;;;6.86;82.13;101949.13;4915808;29;20196;-72
2021/12/13 04:44:59;;;;;;;33.70;17.98;;;6.80;99.90;;;6.86;82.20;101950.97;4916077;29;20182;-72
2021/12/13 04:47:37;;;;;;;36.33;18.80;;;6.80;99.90;;;6.75;82.95;101945.81;4915228;29;20578;-71
2021/12/13 04:50:14;;;;;;;31.15;20.23;;;6.80;99.90;;;6.79;82.36;101947.19;4915911;29;20240;-71
2021/12/13 04:52:45;;;;;;;36.13;18.35;;;6.70;99.90;;;6.88;82.37;101946.25;4915771;29;20181;-72
2021/12/13 04:55:21;;;;;;;37.25;18.90;;;6.80;99.90;;;6.62;82.95;101951.56;4915528;29;20587;-71
2021/12/13 04:57:51;;;;;;;30.90;17.98;;;6.70;99.90;;;6.73;83.01;101942.44;4915146;29;20217;-71
2021/12/13 05:00:30;;;;;;;35.63;19.27;;;6.70;99.90;;;6.63;82.92;101952.41;4915565;29;20201;-72
2021/12/13 05:03:02;;;;;;;35.40;18.88;;;6.60;99.90;;;6.70;82.63;101948.94;4915858;29;20256;-71
2021/12/13 05:05:34;;;;;;;33.95;18.80;;;6.70;99.90;;;6.83;82.66;101952.09;4915522;29;20526;-72
2021/12/13 05:08:06;;;;;;;29.25;18.77;;;6.70;99.90;;;6.98;81.79;101955.13;4919239;29;20217;-71
2021/12/13 05:10:38;;;;;;;37.40;19.50;;;6.80;99.90;;;6.85;82.36;101962.72;4919365;29;20173;-72
2021/12/13 05:13:11;;;;;;;39.22;18.98;;;6.80;99.90;;;6.96;81.49;101952.59;4919354;29;20290;-72
2021/12/13 05:15:45;;;;;;;33.88;18.38;;;6.90;99.90;;;6.83;82.18;101959.31;4919326;29;20197;-73
2021/12/13 05:18:23;;;;;;;36.83;17.75;;;6.90;99.90;;;6.78;82.44;101958.94;4919319;29;20220;-74
2021/12/13 05:21:02;;;;;;;46.30;20.42;;;6.80;99.90;;;6.84;82.53;101955.66;4919633;29;20186;-71
2021/12/13 05:23:33;;;;;;;37.42;19.23;;;6.80;99.90;;;6.89;82.42;101958.72;4919336;29;20200;-72
2021/12/13 05:26:08;;;;;;;36.03;18.42;;;6.80;99.90;;;6.98;81.88;101965.88;4919133;29;20617;-71
2021/12/13 05:28:45;;;;;;;40.08;19.40;;;6.90;99.90;;;6.96;82.15;101963.38;4918788;29;20361;-73
2021/12/13 05:31:24;;;;;;;39.38;19.48;;;6.90;99.90;;;6.99;82.02;101972.97;4917752;29;20288;-71
2021/12/13 05:34:01;;;;;;;40.17;18.50;;;6.90;99.90;;;6.88;82.21;101967.78;4919032;29;20493;-72
2021/12/13 05:36:34;;;;;;;42.80;17.30;;;6.90;99.90;;;6.82;82.87;101968.44;4918442;29;20594;-72
2021/12/13 05:39:10;;;;;;;40.35;18.55;;;6.80;99.90;;;6.99;82.48;101967.59;4919042;29;20674;-72
2021/12/13 05:41:49;;;;;;;46.80;17.35;;;6.90;99.90;;;6.91;82.55;101979.13;4919084;29;20185;-72
2021/12/13 05:44:25;;;;;;;35.83;17.90;;;6.90;99.90;;;6.92;82.77;101979.97;4918645;29;20188;-72
2021/12/13 05:46:57;;;;;;;39.60;19.67;;;6.80;99.90;;;6.88;82.92;101994.69;4918556;29;20260;-71
2021/12/13 05:49:32;;;;;;;39.75;17.35;;;6.80;99.90;;;6.91;82.79;101986.34;4918533;29;20177;-74
2021/12/13 05:52:09;;;;;;;46.25;19.00;;;6.80;99.90;;;6.88;83.04;101992.00;4918605;29;20200;-71
2021/12/13 05:54:44;;;;;;;45.85;18.55;;;6.90;99.90;;;6.79;82.87;101992.91;4918249;29;20216;-72
2021/12/13 05:57:21;;;;;;;48.35;19.02;;;6.80;99.90;;;6.97;82.84;101993.81;4930440;23;20226;-68
2021/12/13 06:00:02;;;;;;;44.75;20.15;;;6.80;99.90;;;7.04;82.58;101994.03;4912138;29;20195;-68
2021/12/13 06:03:05;;;;;;;40.25;18.75;;;6.90;99.90;;;6.83;83.02;101995.16;4899057;29;20686;-67
2021/12/13 06:05:38;;;;;;;48.88;18.80;;;6.80;99.90;;;6.86;83.10;101996.72;4898701;29;20186;-67
2021/12/13 06:08:12;;;;;;;34.70;16.70;;;6.80;99.90;;;6.99;82.81;101994.50;4910866;29;20627;-67
2021/12/13 06:10:50;;;;;;;47.30;19.30;;;6.90;99.90;;;6.96;82.67;101992.13;4917871;29;20177;-68
2021/12/13 06:13:57;;;;;;;32.65;16.92;;;6.90;99.90;;;6.95;82.94;102009.25;4917255;29;20181;-68
2021/12/13 06:16:44;;;;;;;50.67;18.95;;;6.90;99.90;;;6.96;82.96;102008.25;4917532;29;20582;-68
2021/12/13 06:19:30;;;;;;;43.25;17.55;;;6.90;99.90;;;6.95;82.72;102004.72;4916664;29;20197;-68
2021/12/13 06:22:12;;;;;;;38.33;19.20;;;6.90;99.90;;;7.05;82.94;102007.34;4928823;29;20666;-68
2021/12/13 06:24:44;;;;;;;50.42;19.30;;;6.90;99.90;;;7.03;82.86;102003.94;4933439;29;20201;-70
2021/12/13 06:27:20;;;;;;;61.05;23.30;;;6.90;99.90;;;6.97;83.16;102015.34;4931781;29;20459;-67
2021/12/13 06:30:08;;;;;;;46.28;19.92;;;6.90;99.90;;;6.99;83.29;102016.88;4923551;29;20604;-68
2021/12/13 06:32:48;;;;;;;49.58;19.15;;;6.90;99.90;;;6.99;83.13;102014.19;4930356;29;20197;-68
2021/12/13 06:35:43;;;;;;;47.35;19.20;;;6.90;99.90;;;6.97;83.45;102016.16;4919661;29;20209;-68
2021/12/13 06:38:46;;;;;;;48.60;21.63;;;6.90;99.90;;;7.08;82.76;102023.19;4923954;29;20227;-68
2021/12/13 06:41:38;;;;;;;42.30;19.33;;;6.90;99.90;;;7.02;82.87;102018.41;4934991;29;20256;-67
2021/12/13 06:44:22;;;;;;;46.85;21.88;;;7.00;99.90;;;7.11;82.62;102017.53;4919148;29;20265;-69
2021/12/13 06:46:56;;;;;;;52.58;22.10;;;7.00;99.90;;;7.12;82.91;102027.25;4919958;29;20196;-68
2021/12/13 06:49:32;;;;;;;46.30;21.15;;;7.00;99.90;;;7.11;82.97;102028.28;4936246;29;20271;-66
2021/12/13 06:52:06;;;;;;;46.63;20.73;;;7.00;99.90;;;7.12;82.87;102026.41;4936962;29;20685;-68
2021/12/13 06:54:40;;;;;;;44.90;20.35;;;7.00;99.90;;;7.13;82.96;102037.03;4932697;29;20414;-68
2021/12/13 06:57:12;;;;;;;46.00;21.90;;;7.00;99.90;;;7.06;83.00;102035.97;4923602;29;20367;-68
2021/12/13 06:59:50;;;;;;;46.53;21.95;;;7.00;99.90;;;7.06;83.56;102035.97;4916289;29;20205;-68
2021/12/13 07:02:23;;;;;;;56.33;19.70;;;7.00;99.90;;;7.08;83.15;102039.34;4916886;29;20193;-68
2021/12/13 07:05:02;;;;;;;51.30;23.20;;;7.00;99.90;;;7.17;83.06;102042.94;4915384;29;20314;-69
2021/12/13 07:07:38;;;;;;;51.38;21.48;;;7.00;99.90;;;7.20;82.81;102054.28;4916263;29;20216;-69
2021/12/13 07:10:16;;;;;;;46.05;19.67;;;7.10;99.90;;;7.07;83.19;102051.09;4920409;29;20271;-69
2021/12/13 07:12:52;;;;;;;48.15;21.20;;;7.00;99.90;;;7.07;83.22;102050.28;4935820;29;20634;-67
2021/12/13 07:15:36;;;;;;;70.18;25.95;;;7.00;99.90;;;6.98;83.38;102047.47;4928417;29;20189;-68
2021/12/13 07:18:13;;;;;;;47.95;22.38;;;6.90;99.90;;;7.14;83.35;102041.44;4935801;29;20213;-68
2021/12/13 07:20:48;;;;;;;47.80;22.55;;;7.00;99.90;;;7.10;83.38;102045.44;4926033;29;20189;-69
2021/12/13 07:23:18;;;;;;;46.13;20.60;;;7.00;99.90;;;7.28;82.53;102050.81;4916418;29;20193;-69
2021/12/13 07:25:49;;;;;;;50.38;20.75;;;7.10;99.90;;;7.31;82.84;102062.13;4920224;29;20185;-69
2021/12/13 07:28:35;;;;;;;51.40;21.40;;;7.10;99.90;;;7.22;82.66;102062.19;4924019;29;20213;-68
2021/12/13 07:31:08;;;;;;;40.15;20.55;;;7.10;99.90;;;7.19;82.85;102062.50;4931018;29;20207;-67
2021/12/13 07:33:42;;;;;;;41.75;21.10;;;7.10;99.90;;;7.25;83.24;102073.53;4916322;29;20573;-68
2021/12/13 07:36:18;;;;;;;44.08;19.17;;;7.10;99.90;;;7.41;82.41;102070.97;4915406;29;20201;-69
2021/12/13 07:38:52;;;;;;;40.03;19.17;;;7.20;99.90;;;7.18;82.81;102082.34;4916142;29;20224;-68
2021/12/13 07:41:22;;;;;;;49.92;21.55;;;7.10;99.90;;;7.38;82.08;102084.75;4916095;29;20659;-69
2021/12/13 07:43:50;;;;;;;46.75;20.65;;;7.20;99.90;;;7.27;82.54;102086.81;4916253;29;20182;-69
2021/12/13 07:46:30;;;;;;;45.65;19.40;;;7.20;99.90;;;7.28;82.47;102089.38;4915553;29;20189;-69
2021/12/13 07:49:02;;;;;;;39.92;18.45;;;7.20;99.90;;;7.33;82.55;102091.59;4931109;29;20219;-69
2021/12/13 07:51:35;;;;;;;39.15;20.92;;;7.20;99.90;;;7.15;82.89;102088.91;4934802;29;20177;-68
2021/12/13 07:54:13;;;;;;;34.40;18.95;;;7.10;99.90;;;7.29;82.68;102085.69;4934743;29;20196;-66
2021/12/13 07:56:48;;;;;;;39.17;19.92;;;7.20;99.90;;;7.30;82.66;102087.38;4915039;29;20205;-68
2021/12/13 07:59:25;;;;;;;38.33;18.40;;;7.20;99.90;;;7.21;82.90;102090.97;4930413;29;20666;-67
2021/12/13 08:01:58;;;;;;;46.22;19.95;;;7.10;99.90;;;7.11;83.14;102086.66;4934322;29;20172;-69
2021/12/13 08:04:32;;;;;;;34.58;18.27;;;7.10;99.90;;;7.12;83.12;102094.56;4933134;29;20819;-67
2021/12/13 08:07:09;;;;;;;38.58;17.73;;;7.10;99.90;;;7.13;83.27;102087.34;4921031;29;20220;-68
2021/12/13 08:09:47;;;;;;;40.92;17.17;;;7.10;99.90;;;7.36;82.37;102097.53;4916928;29;20669;-67
2021/12/13 08:12:23;;;;;;;48.97;19.98;;;7.20;99.90;;;7.40;82.19;102093.56;4915541;29;20193;-68
2021/12/13 08:15:07;;;;;;;35.13;17.90;;;7.20;99.90;;;7.53;82.08;102093.16;4914114;29;20200;-68
2021/12/13 08:17:48;;;;;;;40.80;18.65;;;7.30;99.90;;;7.50;82.11;102088.09;4919631;29;20212;-68
2021/12/13 08:20:26;;;;;;;40.25;19.05;;;7.40;99.90;;;7.61;82.08;102090.53;4934575;29;20279;-68
2021/12/13 08:23:00;;;;;;;33.75;17.50;;;7.40;99.90;;;7.65;81.57;102096.50;4922442;29;20231;-68
2021/12/13 08:25:39;;;;;;;34.33;16.35;;;7.50;99.90;;;7.55;82.19;102099.22;4914205;29;20197;-69
2021/12/13 08:28:15;;;;;;;31.20;16.73;;;7.50;99.90;;;7.39;82.74;102101.78;4915227;29;20288;-68
2021/12/13 08:30:49;;;;;;;43.80;19.33;;;7.30;99.90;;;7.68;82.26;102104.25;4914712;29;20225;-68
2021/12/13 08:33:31;;;;;;;41.53;18.35;;;7.40;99.90;;;7.60;82.15;102101.50;4915215;29;20197;-69
2021/12/13 08:36:09;;;;;;;31.45;18.27;;;7.40;99.90;;;7.51;82.38;102103.22;4919948;29;20712;-68
2021/12/13 08:38:47;;;;;;;31.75;17.85;;;7.40;99.90;;;7.86;81.38;102102.38;4921334;29;20674;-68
2021/12/13 08:41:35;;;;;;;32.05;16.63;;;7.60;99.90;;;7.86;80.98;102105.94;4914475;29;20192;-69
2021/12/13 08:44:19;;;;;;;45.33;20.13;;;7.70;99.90;;;7.81;81.63;102105.56;4909220;29;20185;-67
2021/12/13 08:46:59;;;;;;;35.30;17.33;;;7.60;99.90;;;7.85;81.35;102120.41;4919788;29;20220;-68
2021/12/13 08:49:41;;;;;;;31.45;17.20;;;7.70;99.90;;;7.84;81.01;102115.19;4934094;29;20197;-67
2021/12/13 08:52:23;;;;;;;38.40;19.45;;;7.70;99.90;;;7.84;81.66;102112.50;4948758;29;20252;-68
2021/12/13 08:55:01;;;;;;;40.35;20.75;;;7.60;99.90;;;8.03;80.64;102109.63;4929381;29;20225;-67
2021/12/13 08:57:46;;;;;;;35.08;19.98;;;7.80;99.90;;;7.98;80.43;102109.25;4895737;29;20241;-69
2021/12/13 09:00:35;;;;;;;32.92;18.98;;;7.80;99.90;;;7.82;81.46;102118.03;4895927;29;20179;-69
2021/12/13 09:03:22;;;;;;;32.22;17.40;;;7.70;99.90;;;7.79;81.56;102115.63;4895561;29;20198;-68
2021/12/13 09:06:31;;;;;;;31.13;17.65;;;7.60;99.90;;;7.83;81.74;102113.50;4925736;29;20782;-67
2021/12/13 09:09:10;;;;;;;33.83;17.13;;;7.60;99.90;;;7.98;81.54;102103.84;4894813;29;20573;-70
2021/12/13 09:11:46;;;;;;;28.65;17.27;;;7.70;99.90;;;8.27;79.98;102114.38;4910112;29;20205;-68
2021/12/13 09:14:21;;;;;;;29.10;16.92;;;8.00;99.90;;;8.40;79.44;102105.88;4915710;29;20189;-68
2021/12/13 09:17:07;;;;;;;31.05;14.88;;;8.00;99.90;;;8.23;79.87;102121.91;4912867;29;20217;-67
2021/12/13 09:19:47;;;;;;;24.10;15.48;;;8.10;99.90;;;8.25;80.24;102117.22;4914757;29;20194;-68
2021/12/13 09:22:21;;;;;;;24.83;15.52;;;8.10;99.90;;;8.21;80.79;102115.84;4914714;29;20193;-69
2021/12/13 09:24:56;;;;;;;34.35;18.77;;;8.10;99.90;;;8.35;80.17;102116.28;4913853;29;20828;-69
2021/12/13 09:27:35;;;;;;;29.65;15.60;;;8.20;99.90;;;8.44;80.21;102110.78;4917376;29;20394;-68
2021/12/13 09:30:25;;;;;;;27.23;16.35;;;8.20;99.90;;;8.53;79.87;102114.38;4934452;29;20644;-67
2021/12/13 09:32:59;;;;;;;26.80;15.68;;;8.40;99.90;;;8.37;80.27;102114.28;4933635;29;20181;-68
2021/12/13 09:35:40;;;;;;;26.27;14.10;;;8.20;99.90;;;8.34;80.35;102119.97;4922159;29;20545;-67
2021/12/13 09:38:43;;;;;;;26.27;16.05;;;8.20;99.90;;;8.57;79.93;102118.44;4922793;29;20255;-68
2021/12/13 09:41:27;;;;;;;23.58;14.20;;;8.30;99.90;;;8.56;79.81;102125.72;4911410;29;20230;-67
2021/12/13 09:44:03;;;;;;;24.58;14.20;;;8.30;99.90;;;8.50;79.72;102130.91;4922792;29;20197;-68
2021/12/13 09:46:46;;;;;;;23.67;14.63;;;8.30;99.90;;;8.51;80.27;102132.59;4913660;29;20205;-68
2021/12/13 09:49:24;;;;;;;25.10;14.55;;;8.30;99.90;;;8.37;80.25;102133.19;4931655;29;20201;-68
2021/12/13 09:51:58;;;;;;;18.65;14.18;;;8.30;99.90;;;8.49;80.26;102140.00;4933975;29;20169;-69
2021/12/13 09:54:34;;;;;;;24.60;13.68;;;8.30;99.90;;;8.45;80.63;102130.53;4934884;29;20192;-69
2021/12/13 09:57:08;;;;;;;19.98;12.63;;;8.30;99.90;;;8.43;80.39;102136.06;4917892;29;20227;-69
2021/12/13 09:59:58;;;;;;;22.02;12.25;;;8.30;99.90;;;8.35;80.82;102133.31;4918533;29;20235;-67
2021/12/13 10:02:33;;;;;;;20.17;12.13;;;8.30;99.90;;;8.56;80.36;102130.28;4932469;29;20674;-68
2021/12/13 10:05:09;;;;;;;16.10;10.80;;;8.40;99.90;;;8.54;80.38;102135.81;4917408;29;20197;-69
2021/12/13 10:07:44;;;;;;;19.65;11.10;;;8.40;99.90;;;8.57;80.33;102127.38;4932652;29;20204;-69
2021/12/13 10:10:18;;;;;;;16.75;10.80;;;8.40;99.90;;;8.65;80.17;102121.22;4917622;29;20197;-68
2021/12/13 10:12:55;;;;;;;18.88;12.48;;;8.40;99.90;;;8.59;80.53;102125.41;4898869;29;20174;-69
2021/12/13 10:15:31;;;;;;;19.40;13.30;;;8.40;99.90;;;8.59;80.68;102124.53;4908467;29;20323;-68
2021/12/13 10:18:06;;;;;;;22.67;13.70;;;8.40;99.90;;;8.52;81.47;102113.53;4928660;29;20470;-69
2021/12/13 10:20:40;;;;;;;23.85;12.75;;;8.30;99.90;;;8.47;80.85;102125.84;4936542;29;20195;-69
2021/12/13 10:23:14;;;;;;;22.52;14.20;;;8.40;99.90;;;8.50;81.24;102120.09;4936283;29;20192;-68
2021/12/13 10:25:48;;;;;;;23.35;14.85;;;8.30;99.90;;;8.69;80.45;102120.72;4928877;29;20192;-70
2021/12/13 10:28:24;;;;;;;23.48;13.52;;;8.40;99.90;;;8.80;80.11;102122.31;4928550;29;20217;-69
2021/12/13 10:31:01;;;;;;;22.13;14.63;;;8.50;99.90;;;8.79;80.37;102125.16;4924398;29;20204;-68
2021/12/13 10:33:37;;;;;;;25.80;16.55;;;8.50;99.90;;;8.82;80.24;102122.13;4918347;29;20469;-68
2021/12/13 10:36:08;;;;;;;25.92;15.20;;;8.60;99.90;;;8.66;81.05;102125.63;4910230;29;20563;-67
2021/12/13 10:38:40;;;;;;;36.08;18.13;;;8.50;99.90;;;8.82;80.17;102120.28;4924001;29;20214;-67
2021/12/13 10:41:18;;;;;;;31.42;17.67;;;8.60;99.90;;;8.81;80.67;102129.38;4917385;29;20626;-69
2021/12/13 10:43:52;;;;;;;26.73;15.27;;;8.60;99.90;;;9.03;79.74;102117.19;4926570;29;20216;-67
2021/12/13 10:46:27;;;;;;;23.15;15.00;;;8.70;99.90;;;9.00;79.71;102120.22;4922015;29;20208;-69
2021/12/13 10:49:05;;;;;;;26.23;16.02;;;8.80;99.90;;;8.92;79.99;102115.59;4930726;29;20212;-68
2021/12/13 10:51:38;;;;;;;29.98;16.58;;;8.80;99.90;;;8.92;80.39;102110.22;4950590;29;20281;-68
2021/12/13 10:54:11;;;;;;;29.70;17.27;;;8.70;99.90;;;8.80;80.80;102105.28;4935982;29;20199;-67
2021/12/13 10:56:46;;;;;;;38.90;18.90;;;8.70;99.90;;;8.92;80.75;102103.97;4919680;29;20257;-68
2021/12/13 10:59:22;;;;;;;35.83;19.60;;;8.70;99.90;;;8.82;81.23;102112.19;4917205;29;20201;-73
2021/12/13 11:01:55;;;;;;;33.55;18.75;;;8.70;99.90;;;9.12;80.08;102106.25;4917153;29;20744;-68